Time;durP1;ratioP1;P1;durP2;ratioP2;P2;SDS_P1;SDS_P2;PMS_P1;PMS_P2;Temp;Humidity;BMP_temperature;BMP_pressure;BME280_temperature;BME280_humidity;BME280_pressure;Samples;Min_cycle;Max_cycle;Signal;HPM_P1;HPM_P2
2021/03/10 00:00:31;;;;;;;31.13;19.73;;;5.70;86.10;;;;;;5030618;28;20214;-60
2021/03/10 00:02:58;;;;;;;33.23;20.17;;;5.70;86.30;;;;;;5025755;28;20549;-60
2021/03/10 00:05:25;;;;;;;28.97;22.17;;;5.70;86.50;;;;;;5033964;28;20218;-60
2021/03/10 00:07:52;;;;;;;35.07;21.23;;;5.80;86.70;;;;;;5028552;28;20258;-60
2021/03/10 00:10:19;;;;;;;27.47;19.73;;;5.90;86.70;;;;;;5030880;28;20211;-60
2021/03/10 00:12:46;;;;;;;30.10;20.67;;;5.90;86.50;;;;;;5032307;28;20206;-60
2021/03/10 00:15:14;;;;;;;30.17;21.73;;;5.90;86.30;;;;;;5035765;28;20211;-60
2021/03/10 00:17:43;;;;;;;31.10;20.03;;;5.80;86.30;;;;;;5030582;28;20264;-60
2021/03/10 00:20:12;;;;;;;30.83;20.50;;;5.80;86.50;;;;;;5031479;28;20215;-60
2021/03/10 00:22:40;;;;;;;26.33;19.60;;;5.70;86.40;;;;;;5007414;28;20211;-59
2021/03/10 00:25:08;;;;;;;31.13;19.63;;;5.70;86.30;;;;;;5032180;28;20215;-59
2021/03/10 00:27:36;;;;;;;27.17;19.70;;;5.70;86.40;;;;;;5029486;28;20651;-59
2021/03/10 00:30:06;;;;;;;34.20;20.63;;;5.70;86.50;;;;;;5032396;28;20218;-59
2021/03/10 00:32:34;;;;;;;30.50;19.93;;;5.70;86.60;;;;;;5025635;28;20239;-59
2021/03/10 00:35:21;;;;;;;30.33;18.60;;;5.80;86.70;;;;;;5014556;28;20275;-60
2021/03/10 00:37:59;;;;;;;30.30;19.50;;;5.80;86.70;;;;;;5019631;28;20281;-59
2021/03/10 00:40:27;;;;;;;24.23;18.03;;;5.80;86.40;;;;;;5013713;28;20214;-59
2021/03/10 00:42:54;;;;;;;26.07;18.67;;;5.80;86.20;;;;;;5011907;28;20219;-59
2021/03/10 00:45:22;;;;;;;29.80;19.57;;;5.80;85.80;;;;;;5012056;28;20208;-59
2021/03/10 00:47:49;;;;;;;32.33;20.53;;;5.80;85.60;;;;;;5014940;28;20233;-59
2021/03/10 00:50:19;;;;;;;26.60;19.00;;;5.80;85.50;;;;;;5008978;28;20858;-59
2021/03/10 00:52:47;;;;;;;25.47;18.97;;;5.70;85.60;;;;;;5020964;28;20233;-59
2021/03/10 00:55:14;;;;;;;28.60;18.60;;;5.80;85.70;;;;;;5013265;28;20295;-59
2021/03/10 00:57:41;;;;;;;29.07;18.33;;;5.70;85.70;;;;;;5003992;28;20222;-59
2021/03/10 01:00:09;;;;;;;30.00;19.20;;;5.70;85.60;;;;;;5011745;28;20208;-59
2021/03/10 01:02:36;;;;;;;24.90;16.60;;;5.70;85.60;;;;;;5013709;28;20211;-59
2021/03/10 01:05:05;;;;;;;27.53;17.97;;;5.70;85.60;;;;;;5020869;28;20265;-59
2021/03/10 01:07:33;;;;;;;26.17;19.60;;;5.70;85.50;;;;;;5007352;28;20226;-59
2021/03/10 01:10:00;;;;;;;30.20;19.17;;;5.60;85.50;;;;;;5015875;28;20328;-59
2021/03/10 01:12:28;;;;;;;28.77;19.37;;;5.60;85.70;;;;;;5013360;28;20637;-59
2021/03/10 01:14:54;;;;;;;25.67;19.30;;;5.60;85.80;;;;;;5008345;28;20219;-59
2021/03/10 01:17:21;;;;;;;28.40;19.93;;;5.60;85.90;;;;;;5009595;28;20205;-59
2021/03/10 01:19:49;;;;;;;32.10;19.23;;;5.60;85.90;;;;;;5023021;28;20203;-59
2021/03/10 01:22:17;;;;;;;23.07;17.47;;;5.60;85.90;;;;;;5017829;28;20223;-59
2021/03/10 01:24:44;;;;;;;28.40;18.67;;;5.60;85.70;;;;;;5010306;28;20659;-59
2021/03/10 01:27:16;;;;;;;31.27;19.77;;;5.60;85.70;;;;;;5012162;28;20220;-59
2021/03/10 01:29:47;;;;;;;27.90;20.30;;;5.50;85.90;;;;;;5008164;28;20805;-59
2021/03/10 01:32:15;;;;;;;24.73;17.67;;;5.50;86.30;;;;;;4973487;28;1187459;-59
2021/03/10 01:34:42;;;;;;;29.67;20.67;;;5.60;86.30;;;;;;5031319;28;20593;-59
2021/03/10 01:37:09;;;;;;;27.37;19.83;;;5.60;86.20;;;;;;5028825;28;20215;-59
2021/03/10 01:39:36;;;;;;;27.00;20.17;;;5.60;86.20;;;;;;5002737;28;20307;-59
2021/03/10 01:42:05;;;;;;;28.17;19.87;;;5.60;86.20;;;;;;5027915;28;20286;-59
2021/03/10 01:44:33;;;;;;;28.23;20.60;;;5.60;86.10;;;;;;5027377;28;20306;-59
2021/03/10 01:47:02;;;;;;;27.17;19.67;;;5.60;86.00;;;;;;5019950;28;20228;-59
2021/03/10 01:49:30;;;;;;;28.53;21.23;;;5.60;86.00;;;;;;5031826;28;20347;-59
2021/03/10 01:51:57;;;;;;;30.33;21.13;;;5.70;86.00;;;;;;5031576;28;20640;-59
2021/03/10 01:54:25;;;;;;;26.20;19.73;;;5.70;86.00;;;;;;5036457;28;20242;-59
2021/03/10 01:56:52;;;;;;;30.10;20.97;;;5.70;86.00;;;;;;5029086;28;20527;-59
2021/03/10 01:59:22;;;;;;;27.23;20.30;;;5.70;86.00;;;;;;5032319;28;20250;-59
2021/03/10 02:01:49;;;;;;;34.50;21.53;;;5.70;86.00;;;;;;5031245;28;20222;-59
2021/03/10 02:04:17;;;;;;;32.80;23.57;;;5.60;85.90;;;;;;5041820;28;20672;-59
2021/03/10 02:07:06;;;;;;;35.10;22.77;;;5.70;86.00;;;;;;5042872;28;20215;-60
2021/03/10 02:09:50;;;;;;;31.37;21.90;;;5.70;85.80;;;;;;5004171;28;20231;-60
2021/03/10 02:12:40;;;;;;;33.73;21.73;;;5.70;85.70;;;;;;5011136;28;20207;-60
2021/03/10 02:15:36;;;;;;;29.27;20.83;;;5.70;85.50;;;;;;5045503;28;20238;-60
2021/03/10 02:18:14;;;;;;;30.23;21.87;;;5.70;85.30;;;;;;5008182;28;20225;-60
2021/03/10 02:20:47;;;;;;;34.50;21.90;;;5.70;85.20;;;;;;5031421;28;20222;-60
2021/03/10 02:23:36;;;;;;;33.90;21.63;;;5.70;85.10;;;;;;5041081;28;20273;-60
2021/03/10 02:26:28;;;;;;;30.20;21.40;;;5.70;85.00;;;;;;5042057;28;20221;-60
2021/03/10 02:29:04;;;;;;;30.80;22.27;;;5.70;84.90;;;;;;5042568;28;20253;-60
2021/03/10 02:31:41;;;;;;;34.00;23.63;;;5.80;84.80;;;;;;5038440;28;20598;-60
2021/03/10 02:34:09;;;;;;;30.33;22.63;;;5.80;84.60;;;;;;5029807;28;20334;-60
2021/03/10 02:36:57;;;;;;;32.70;22.50;;;5.80;84.50;;;;;;5033205;28;20278;-59
2021/03/10 02:39:25;;;;;;;30.70;21.87;;;5.80;84.30;;;;;;5038344;28;20221;-60
2021/03/10 02:41:53;;;;;;;31.43;21.43;;;5.90;84.20;;;;;;5039668;28;20674;-60
2021/03/10 02:44:22;;;;;;;33.83;22.23;;;5.90;84.10;;;;;;5035756;28;20211;-60
2021/03/10 02:46:50;;;;;;;31.43;22.13;;;5.90;84.00;;;;;;5042483;28;20218;-60
2021/03/10 02:49:19;;;;;;;34.37;22.07;;;5.90;83.80;;;;;;5043664;28;20231;-60
2021/03/10 02:51:48;;;;;;;29.37;21.13;;;5.90;83.90;;;;;;5038297;28;20252;-60
2021/03/10 02:54:16;;;;;;;33.57;23.17;;;6.00;83.80;;;;;;5026262;28;20221;-60
2021/03/10 02:56:43;;;;;;;31.37;23.33;;;6.00;83.70;;;;;;5026129;28;20211;-60
2021/03/10 02:59:12;;;;;;;32.37;22.13;;;6.00;83.80;;;;;;5011086;28;20212;-60
2021/03/10 03:01:39;;;;;;;33.10;22.50;;;6.00;83.80;;;;;;5038330;28;20221;-60
2021/03/10 03:04:07;;;;;;;33.03;22.23;;;5.90;83.70;;;;;;5025286;28;20629;-60
2021/03/10 03:06:34;;;;;;;33.43;22.53;;;5.90;83.70;;;;;;5033662;28;20207;-60
2021/03/10 03:09:02;;;;;;;32.00;22.43;;;5.90;83.80;;;;;;5026716;28;20231;-60
2021/03/10 03:11:30;;;;;;;34.27;23.20;;;5.90;83.90;;;;;;5038838;28;20240;-60
2021/03/10 03:14:01;;;;;;;35.23;22.63;;;5.90;83.90;;;;;;5028930;28;20222;-60
2021/03/10 03:16:29;;;;;;;33.00;21.93;;;5.90;83.60;;;;;;5016236;28;20211;-60
2021/03/10 03:18:57;;;;;;;32.97;21.80;;;5.90;83.50;;;;;;5049123;28;20226;-60
2021/03/10 03:21:24;;;;;;;28.47;20.13;;;5.90;83.30;;;;;;5016179;28;20298;-60
2021/03/10 03:23:53;;;;;;;27.87;20.97;;;5.90;83.10;;;;;;5028932;28;20213;-60
2021/03/10 03:26:20;;;;;;;30.40;20.67;;;5.80;83.10;;;;;;5042269;28;20202;-60
2021/03/10 03:28:48;;;;;;;30.43;21.00;;;5.80;83.10;;;;;;5030655;28;20288;-60
2021/03/10 03:31:17;;;;;;;27.47;20.60;;;5.80;83.20;;;;;;5033063;28;20581;-60
2021/03/10 03:33:45;;;;;;;31.53;21.47;;;5.70;83.30;;;;;;5036607;28;20322;-60
2021/03/10 03:36:12;;;;;;;27.20;20.60;;;5.70;83.70;;;;;;5029279;28;20423;-60
2021/03/10 03:38:40;;;;;;;31.47;21.00;;;5.60;83.70;;;;;;5032493;28;20208;-60
2021/03/10 03:41:08;;;;;;;35.20;21.50;;;5.60;83.80;;;;;;5017006;28;20219;-60
2021/03/10 03:43:35;;;;;;;35.40;22.23;;;5.70;83.90;;;;;;5024784;28;20218;-60
2021/03/10 03:46:05;;;;;;;34.23;22.50;;;5.70;84.00;;;;;;5042273;28;20583;-60
2021/03/10 03:48:32;;;;;;;32.07;23.43;;;5.70;84.00;;;;;;5037604;28;20726;-60
2021/03/10 03:50:59;;;;;;;35.43;23.87;;;5.70;84.20;;;;;;5034649;28;20218;-60
2021/03/10 03:53:26;;;;;;;30.17;22.87;;;5.80;84.20;;;;;;5025361;28;20707;-60
2021/03/10 03:55:53;;;;;;;42.13;23.13;;;5.80;84.30;;;;;;5036571;28;20215;-60
2021/03/10 03:58:20;;;;;;;34.60;23.53;;;5.80;84.20;;;;;;5035145;28;20218;-60
2021/03/10 04:00:47;;;;;;;31.60;23.63;;;5.80;84.20;;;;;;5034556;28;20208;-60
2021/03/10 04:03:14;;;;;;;33.83;24.03;;;5.80;84.20;;;;;;5035224;28;20216;-60
2021/03/10 04:05:41;;;;;;;34.83;23.97;;;5.80;84.30;;;;;;5033186;28;20208;-60
2021/03/10 04:08:09;;;;;;;37.67;23.87;;;5.80;84.40;;;;;;5039940;28;20317;-60
2021/03/10 04:10:38;;;;;;;31.00;23.53;;;5.80;84.40;;;;;;5033019;28;20203;-60
2021/03/10 04:13:05;;;;;;;31.70;23.57;;;5.90;84.40;;;;;;5042311;28;20208;-60
2021/03/10 04:15:34;;;;;;;31.73;23.07;;;5.90;84.30;;;;;;5031041;28;20210;-61
2021/03/10 04:18:02;;;;;;;34.97;25.03;;;5.90;84.30;;;;;;5026082;28;20528;-60
2021/03/10 04:20:29;;;;;;;33.73;23.00;;;5.90;84.30;;;;;;5036053;28;20225;-60
2021/03/10 04:22:56;;;;;;;36.90;24.10;;;5.90;84.20;;;;;;5032102;28;20211;-60
2021/03/10 04:25:23;;;;;;;33.17;23.40;;;6.00;84.20;;;;;;5041609;28;20211;-60
2021/03/10 04:27:51;;;;;;;37.37;24.43;;;6.00;84.30;;;;;;5034225;28;20679;-60
2021/03/10 04:30:18;;;;;;;39.70;24.50;;;6.00;84.30;;;;;;5019534;28;20250;-60
2021/03/10 04:32:45;;;;;;;33.70;24.73;;;6.00;84.30;;;;;;5031550;28;20624;-60
2021/03/10 04:35:12;;;;;;;32.00;24.03;;;6.00;84.40;;;;;;5027849;28;20216;-60
2021/03/10 04:37:40;;;;;;;35.07;24.20;;;6.00;84.40;;;;;;5014436;28;20211;-60
2021/03/10 04:40:09;;;;;;;35.60;24.27;;;6.10;84.50;;;;;;5028775;28;20211;-60
2021/03/10 04:42:38;;;;;;;34.93;23.63;;;6.10;84.40;;;;;;5006296;28;20708;-60
2021/03/10 04:45:07;;;;;;;35.20;23.40;;;6.10;84.30;;;;;;5017394;28;20231;-60
2021/03/10 04:47:34;;;;;;;33.63;24.43;;;6.20;84.30;;;;;;5030517;28;20214;-60
2021/03/10 04:50:06;;;;;;;34.27;23.83;;;6.20;84.20;;;;;;5017241;28;20235;-60
2021/03/10 04:52:33;;;;;;;39.97;23.83;;;6.20;84.10;;;;;;5016553;28;20376;-60
2021/03/10 04:55:00;;;;;;;36.90;24.00;;;6.20;84.10;;;;;;5028253;28;20611;-60
2021/03/10 04:57:27;;;;;;;37.07;26.93;;;6.10;84.10;;;;;;5031006;28;20206;-60
2021/03/10 04:59:54;;;;;;;33.23;23.37;;;6.10;84.20;;;;;;5036468;28;20211;-60
2021/03/10 05:02:21;;;;;;;31.97;22.60;;;6.10;84.30;;;;;;5037355;28;20544;-60
2021/03/10 05:04:48;;;;;;;35.47;24.87;;;6.10;84.30;;;;;;5036016;28;20211;-60
2021/03/10 05:07:16;;;;;;;35.93;23.63;;;6.00;84.30;;;;;;5032841;28;21837;-60
2021/03/10 05:09:43;;;;;;;35.07;24.57;;;6.00;84.30;;;;;;5039390;28;20265;-60
2021/03/10 05:12:11;;;;;;;32.53;23.77;;;6.00;84.30;;;;;;5029967;28;20633;-60
2021/03/10 05:14:38;;;;;;;36.57;23.97;;;5.90;84.40;;;;;;5023717;28;20735;-60
2021/03/10 05:17:23;;;;;;;35.77;23.23;;;5.90;84.40;;;;;;5042503;28;20287;-60
2021/03/10 05:19:50;;;;;;;36.60;23.23;;;5.90;84.30;;;;;;5038354;28;20206;-60
2021/03/10 05:22:17;;;;;;;42.73;23.17;;;5.90;84.30;;;;;;5041499;28;20221;-60
2021/03/10 05:24:44;;;;;;;37.40;22.70;;;5.80;84.20;;;;;;5029802;28;20215;-60
2021/03/10 05:27:11;;;;;;;33.83;24.97;;;5.80;84.20;;;;;;5030875;28;20242;-60
2021/03/10 05:29:38;;;;;;;37.87;23.93;;;5.80;84.40;;;;;;5037353;28;20757;-60
2021/03/10 05:32:06;;;;;;;32.63;23.93;;;5.80;84.30;;;;;;5034440;28;20215;-60
2021/03/10 05:34:34;;;;;;;36.37;22.40;;;5.80;84.40;;;;;;5034920;28;20318;-60
2021/03/10 05:37:01;;;;;;;37.03;23.43;;;5.70;84.30;;;;;;5035774;28;20644;-60
2021/03/10 05:39:28;;;;;;;33.33;23.10;;;5.70;84.20;;;;;;5014365;28;20266;-60
2021/03/10 05:41:59;;;;;;;32.33;23.40;;;5.70;84.20;;;;;;5029414;28;20218;-60
2021/03/10 05:44:26;;;;;;;31.90;23.10;;;5.80;84.30;;;;;;5034471;28;20272;-60
2021/03/10 05:46:54;;;;;;;33.40;22.63;;;5.80;84.20;;;;;;5039441;28;20207;-60
2021/03/10 05:49:22;;;;;;;34.93;23.20;;;5.80;84.20;;;;;;5048113;28;20566;-60
2021/03/10 05:51:52;;;;;;;29.20;21.33;;;5.90;84.30;;;;;;5040778;28;20229;-60
2021/03/10 05:54:20;;;;;;;31.07;21.93;;;6.00;84.30;;;;;;5042463;28;20294;-60
2021/03/10 05:56:47;;;;;;;33.33;22.87;;;6.00;84.30;;;;;;5010653;28;20701;-60
2021/03/10 05:59:15;;;;;;;34.17;23.33;;;6.10;84.50;;;;;;5032328;28;20588;-60
2021/03/10 06:01:42;;;;;;;29.63;22.00;;;6.20;84.60;;;;;;5024778;28;20222;-60
2021/03/10 06:04:09;;;;;;;30.73;21.90;;;6.30;84.60;;;;;;5033082;28;20226;-60
2021/03/10 06:06:38;;;;;;;30.93;22.87;;;6.40;84.60;;;;;;5018871;28;20252;-60
2021/03/10 06:09:11;;;;;;;33.83;21.87;;;6.50;84.30;;;;;;5016852;28;20226;-60
2021/03/10 06:11:39;;;;;;;35.33;22.40;;;6.60;84.00;;;;;;5024588;28;20533;-60
2021/03/10 06:14:15;;;;;;;31.23;22.33;;;6.70;84.20;;;;;;5030416;28;20245;-60
2021/03/10 06:16:42;;;;;;;35.83;23.30;;;6.70;83.10;;;;;;5031019;28;20215;-60
2021/03/10 06:19:10;;;;;;;31.20;22.63;;;6.70;83.10;;;;;;5036279;28;20210;-60
2021/03/10 06:21:48;;;;;;;33.53;23.97;;;6.70;83.00;;;;;;5030981;28;20214;-60
2021/03/10 06:24:16;;;;;;;34.17;23.90;;;6.70;83.10;;;;;;5026025;28;20298;-60
2021/03/10 06:26:54;;;;;;;40.30;25.00;;;6.70;83.10;;;;;;5018145;28;20219;-60
2021/03/10 06:29:21;;;;;;;37.90;23.93;;;6.70;83.30;;;;;;5033161;28;20240;-60
2021/03/10 06:31:48;;;;;;;34.90;23.73;;;6.80;83.30;;;;;;5027672;28;20203;-60
2021/03/10 06:34:16;;;;;;;36.23;23.00;;;6.80;83.40;;;;;;5031920;28;20242;-60
2021/03/10 06:36:48;;;;;;;37.13;23.40;;;6.80;83.60;;;;;;5013064;28;20586;-60
2021/03/10 06:39:29;;;;;;;33.57;24.27;;;6.90;83.80;;;;;;5023880;28;20655;-60
2021/03/10 06:41:58;;;;;;;41.27;24.87;;;7.00;83.70;;;;;;5018165;28;20215;-60
2021/03/10 06:44:31;;;;;;;37.13;23.00;;;7.00;83.30;;;;;;5017625;28;20555;-60
2021/03/10 06:47:03;;;;;;;34.83;23.97;;;7.10;83.10;;;;;;5039177;28;20716;-60
2021/03/10 06:49:33;;;;;;;38.63;25.13;;;7.20;83.10;;;;;;5046530;28;20691;-60
2021/03/10 06:52:08;;;;;;;32.23;23.23;;;7.30;82.90;;;;;;5038934;28;20211;-60
2021/03/10 06:54:35;;;;;;;42.73;26.40;;;7.40;82.90;;;;;;5032117;28;20253;-60
2021/03/10 06:57:08;;;;;;;35.50;24.90;;;7.50;82.80;;;;;;5036116;28;20436;-60
2021/03/10 06:59:40;;;;;;;36.30;25.57;;;7.60;82.70;;;;;;5027870;28;20219;-60
2021/03/10 07:02:18;;;;;;;33.23;23.27;;;7.60;82.50;;;;;;5031137;28;20356;-60
2021/03/10 07:04:48;;;;;;;37.20;23.90;;;7.70;82.10;;;;;;5035769;28;20301;-60
2021/03/10 07:07:17;;;;;;;38.90;22.97;;;7.80;81.80;;;;;;5022418;28;20550;-60
2021/03/10 07:09:45;;;;;;;32.57;24.00;;;7.90;81.60;;;;;;5021960;28;20323;-60
2021/03/10 07:12:15;;;;;;;33.67;24.37;;;8.00;81.30;;;;;;5040457;28;20208;-60
2021/03/10 07:14:43;;;;;;;36.77;24.87;;;8.00;81.00;;;;;;5010956;28;20206;-60
2021/03/10 07:17:13;;;;;;;37.43;24.63;;;8.20;80.70;;;;;;5036859;28;20246;-59
2021/03/10 07:19:44;;;;;;;36.20;24.13;;;8.20;80.50;;;;;;5035440;28;20199;-60
2021/03/10 07:22:26;;;;;;;36.63;23.47;;;8.30;80.40;;;;;;5046367;28;20210;-60
2021/03/10 07:25:09;;;;;;;32.10;23.67;;;8.50;80.30;;;;;;5012751;28;20206;-60
2021/03/10 07:27:50;;;;;;;35.03;23.57;;;8.60;79.80;;;;;;5003326;28;20215;-60
2021/03/10 07:30:17;;;;;;;37.13;22.57;;;8.70;79.20;;;;;;5024751;28;20265;-60
2021/03/10 07:32:45;;;;;;;37.60;24.10;;;8.80;78.90;;;;;;5038875;28;20249;-60
2021/03/10 07:35:12;;;;;;;32.97;22.23;;;8.90;78.40;;;;;;5041703;28;20207;-60
2021/03/10 07:37:54;;;;;;;29.90;20.87;;;9.10;78.10;;;;;;5036825;28;20211;-60
2021/03/10 07:40:59;;;;;;;31.60;22.03;;;9.20;77.20;;;;;;5018336;28;20210;-60
2021/03/10 07:43:35;;;;;;;28.43;21.07;;;9.40;75.90;;;;;;5036441;28;20596;-60
2021/03/10 07:46:04;;;;;;;25.77;18.77;;;9.50;75.40;;;;;;5044597;28;20213;-60
2021/03/10 07:48:33;;;;;;;30.03;19.73;;;9.60;74.90;;;;;;5038942;28;20235;-60
2021/03/10 07:51:01;;;;;;;25.03;17.27;;;9.70;74.30;;;;;;5027811;28;20286;-60
2021/03/10 07:53:38;;;;;;;24.20;15.97;;;9.80;71.70;;;;;;5041765;28;20659;-60
2021/03/10 07:56:08;;;;;;;24.00;17.23;;;10.00;69.60;;;;;;5028564;28;20210;-60
2021/03/10 07:58:35;;;;;;;20.90;15.10;;;10.10;69.00;;;;;;5020552;28;20211;-59
2021/03/10 08:01:14;;;;;;;21.00;15.90;;;10.20;67.70;;;;;;5027357;28;20277;-61
2021/03/10 08:03:44;;;;;;;26.37;16.50;;;10.20;66.40;;;;;;5019953;28;20549;-59
2021/03/10 08:06:12;;;;;;;20.97;16.70;;;10.30;65.70;;;;;;5038874;28;20294;-61
2021/03/10 08:08:42;;;;;;;22.67;16.57;;;10.40;65.10;;;;;;5032275;28;20665;-59
2021/03/10 08:11:17;;;;;;;22.23;17.37;;;10.80;64.60;;;;;;5035406;28;20285;-57
2021/03/10 08:13:59;;;;;;;27.33;19.33;;;11.00;63.70;;;;;;5018024;28;20210;-61
2021/03/10 08:16:26;;;;;;;22.00;16.70;;;11.10;62.70;;;;;;5017368;28;20219;-59
2021/03/10 08:18:54;;;;;;;19.77;15.77;;;11.00;63.00;;;;;;5031710;28;20307;-60
2021/03/10 08:21:22;;;;;;;21.30;16.93;;;10.90;62.90;;;;;;5019325;28;20230;-59
2021/03/10 08:23:50;;;;;;;25.57;17.13;;;11.00;61.70;;;;;;5016622;28;20269;-59
2021/03/10 08:26:18;;;;;;;25.17;17.77;;;11.10;60.80;;;;;;5028269;28;20225;-61
2021/03/10 08:28:45;;;;;;;26.40;18.97;;;11.30;59.90;;;;;;5028626;28;20232;-63
2021/03/10 08:31:12;;;;;;;24.13;18.07;;;11.40;60.40;;;;;;5026720;28;20215;-60
2021/03/10 08:33:48;;;;;;;24.50;17.57;;;11.50;60.10;;;;;;5016998;28;20298;-61
2021/03/10 08:36:16;;;;;;;22.60;16.57;;;11.70;59.50;;;;;;4987068;28;20212;-60
2021/03/10 08:38:45;;;;;;;22.27;17.33;;;11.80;58.20;;;;;;4989978;28;20212;-60
2021/03/10 08:41:25;;;;;;;20.50;17.03;;;11.90;57.80;;;;;;4993531;28;20375;-60
2021/03/10 08:44:09;;;;;;;20.20;15.80;;;12.10;58.00;;;;;;4992925;28;20204;-58
2021/03/10 08:46:41;;;;;;;24.83;16.07;;;12.10;56.50;;;;;;4991701;28;20228;-59
2021/03/10 08:49:27;;;;;;;24.03;16.77;;;12.20;56.70;;;;;;4994457;28;20228;-59
2021/03/10 08:52:03;;;;;;;20.00;14.57;;;12.30;55.90;;;;;;4989361;28;20223;-60
2021/03/10 08:54:29;;;;;;;23.10;14.93;;;12.40;55.60;;;;;;4981773;28;20300;-60
2021/03/10 08:56:56;;;;;;;19.17;16.40;;;12.60;55.10;;;;;;5002984;28;20220;-60
2021/03/10 08:59:34;;;;;;;18.77;14.97;;;12.80;54.80;;;;;;4991319;28;20205;-62
2021/03/10 09:02:02;;;;;;;19.23;14.73;;;12.80;53.50;;;;;;4992326;28;20216;-62
2021/03/10 09:04:29;;;;;;;24.70;15.57;;;12.90;52.60;;;;;;4992037;28;20215;-60
2021/03/10 09:06:57;;;;;;;21.53;15.20;;;13.00;52.80;;;;;;4990922;28;20228;-61
2021/03/10 09:09:26;;;;;;;21.70;14.77;;;13.10;52.60;;;;;;4989668;28;20637;-60
2021/03/10 09:11:54;;;;;;;17.63;13.87;;;13.40;52.60;;;;;;4992654;28;20205;-60
2021/03/10 09:14:22;;;;;;;19.00;14.27;;;13.60;51.20;;;;;;4991817;28;20271;-59
2021/03/10 09:16:57;;;;;;;24.07;15.30;;;13.60;50.30;;;;;;4992145;28;20267;-60
2021/03/10 09:19:32;;;;;;;23.57;14.27;;;13.70;50.80;;;;;;4990961;28;20215;-61
2021/03/10 09:22:22;;;;;;;18.07;13.53;;;13.80;51.20;;;;;;4992883;28;20244;-61
2021/03/10 09:25:13;;;;;;;22.83;15.80;;;14.10;50.90;;;;;;4989031;28;20231;-59
2021/03/10 09:27:44;;;;;;;21.27;15.40;;;14.40;50.90;;;;;;4988767;28;20227;-59
2021/03/10 09:30:26;;;;;;;19.40;15.13;;;14.50;50.10;;;;;;4993109;28;20224;-61
2021/03/10 09:32:53;;;;;;;25.37;16.07;;;14.70;49.20;;;;;;4997512;28;20286;-63
2021/03/10 09:35:31;;;;;;;20.77;16.57;;;14.80;49.50;;;;;;5010373;28;20212;-64
2021/03/10 09:38:03;;;;;;;18.93;15.10;;;14.90;49.30;;;;;;5009975;28;20217;-61
2021/03/10 09:40:38;;;;;;;21.07;15.37;;;15.00;48.50;;;;;;5007483;28;20641;-62
2021/03/10 09:43:22;;;;;;;21.43;15.43;;;15.10;48.10;;;;;;5011504;28;20222;-63
2021/03/10 09:45:54;;;;;;;26.40;15.40;;;15.10;48.10;;;;;;5007039;28;20285;-60
2021/03/10 09:48:32;;;;;;;18.40;14.23;;;15.30;47.90;;;;;;5019731;28;20208;-62
2021/03/10 09:51:05;;;;;;;20.07;15.70;;;15.20;46.90;;;;;;5009670;28;20229;-62
2021/03/10 09:53:33;;;;;;;17.70;14.80;;;15.10;46.10;;;;;;5015740;28;20284;-62
2021/03/10 09:56:04;;;;;;;20.73;15.90;;;15.10;47.00;;;;;;5011390;28;20212;-61
2021/03/10 09:58:31;;;;;;;21.20;15.37;;;15.20;47.40;;;;;;5012855;28;20219;-61
2021/03/10 10:01:00;;;;;;;19.67;15.50;;;15.30;47.20;;;;;;5006819;28;20223;-59
2021/03/10 10:03:28;;;;;;;17.80;14.23;;;15.20;45.90;;;;;;5011712;28;20646;-63
2021/03/10 10:06:24;;;;;;;16.13;14.37;;;15.20;46.40;;;;;;5007245;28;20251;-64
2021/03/10 10:08:51;;;;;;;22.20;14.90;;;15.20;46.20;;;;;;5008664;28;20232;-62
2021/03/10 10:11:20;;;;;;;19.53;15.43;;;15.20;46.80;;;;;;5006373;28;20257;-60
2021/03/10 10:13:50;;;;;;;18.37;14.33;;;15.40;46.70;;;;;;5011645;28;20310;-61
2021/03/10 10:16:17;;;;;;;18.80;14.70;;;15.60;46.50;;;;;;5013220;28;20227;-59
2021/03/10 10:18:45;;;;;;;21.70;14.77;;;15.70;46.50;;;;;;5012077;28;20220;-60
2021/03/10 10:21:13;;;;;;;19.87;14.50;;;15.90;46.30;;;;;;5012964;28;20218;-61
2021/03/10 10:23:40;;;;;;;18.53;13.73;;;16.10;45.40;;;;;;5016605;28;20208;-63
2021/03/10 10:26:07;;;;;;;16.33;13.57;;;16.20;44.70;;;;;;5008668;28;20387;-61
2021/03/10 10:28:35;;;;;;;18.10;12.47;;;16.10;42.10;;;;;;5007883;28;20281;-62
2021/03/10 10:31:07;;;;;;;19.73;14.17;;;15.80;42.00;;;;;;5018146;28;20239;-62
2021/03/10 10:33:34;;;;;;;17.07;14.17;;;15.60;42.10;;;;;;5012576;28;20269;-60
2021/03/10 10:36:01;;;;;;;18.10;14.60;;;15.50;44.50;;;;;;5018953;28;20203;-62
2021/03/10 10:38:28;;;;;;;19.60;14.80;;;15.30;45.20;;;;;;5016715;28;20211;-60
2021/03/10 10:40:55;;;;;;;18.13;13.77;;;15.20;46.30;;;;;;5022441;28;20227;-62
2021/03/10 10:43:22;;;;;;;18.23;14.07;;;15.10;46.00;;;;;;5014925;28;20204;-60
2021/03/10 10:45:49;;;;;;;18.50;13.80;;;15.30;46.10;;;;;;5015261;28;20258;-61
2021/03/10 10:48:16;;;;;;;17.67;12.13;;;15.30;44.40;;;;;;5012522;28;20211;-61
2021/03/10 10:50:43;;;;;;;13.97;11.40;;;15.40;43.20;;;;;;4997105;28;20662;-61
2021/03/10 10:53:10;;;;;;;14.73;12.00;;;15.40;42.00;;;;;;5019169;28;20210;-61
2021/03/10 10:55:36;;;;;;;16.50;12.57;;;15.40;42.20;;;;;;5014984;28;20622;-60
2021/03/10 10:58:04;;;;;;;17.17;12.87;;;15.50;42.60;;;;;;5015111;28;20204;-62
2021/03/10 11:00:30;;;;;;;16.57;13.83;;;15.70;42.80;;;;;;5018389;28;20230;-64
2021/03/10 11:02:58;;;;;;;16.70;13.33;;;15.90;43.60;;;;;;5023265;28;20239;-64
2021/03/10 11:05:25;;;;;;;13.37;11.50;;;16.10;42.40;;;;;;5023546;28;20250;-62
2021/03/10 11:07:52;;;;;;;15.97;12.77;;;16.00;41.30;;;;;;5015910;28;20212;-63
2021/03/10 11:10:19;;;;;;;16.30;12.53;;;15.90;40.00;;;;;;5014252;28;20267;-63
2021/03/10 11:12:46;;;;;;;18.13;12.67;;;15.70;40.40;;;;;;5021719;28;20239;-63
2021/03/10 11:15:13;;;;;;;17.33;13.57;;;15.50;41.90;;;;;;5013980;28;20212;-63
2021/03/10 11:17:40;;;;;;;16.47;13.03;;;15.40;41.70;;;;;;5018135;28;20597;-63
2021/03/10 11:20:09;;;;;;;15.23;13.23;;;15.40;42.20;;;;;;5016040;28;20708;-63
2021/03/10 11:22:36;;;;;;;19.37;13.37;;;15.50;42.30;;;;;;5013744;28;20613;-63
2021/03/10 11:25:10;;;;;;;17.40;13.13;;;15.70;42.30;;;;;;5019302;28;20211;-63
2021/03/10 11:27:37;;;;;;;17.03;13.07;;;15.90;41.50;;;;;;5010656;28;20291;-63
2021/03/10 11:30:06;;;;;;;21.87;14.30;;;15.90;41.50;;;;;;5019025;28;20231;-61
2021/03/10 11:32:35;;;;;;;16.57;13.07;;;16.00;41.60;;;;;;5010842;28;20622;-63
2021/03/10 11:35:04;;;;;;;21.57;13.37;;;16.00;41.20;;;;;;5031123;28;20207;-62
2021/03/10 11:37:31;;;;;;;16.17;12.23;;;16.00;39.90;;;;;;5020298;28;20269;-63
2021/03/10 11:39:58;;;;;;;15.33;12.53;;;16.00;41.00;;;;;;5042212;28;20640;-62
2021/03/10 11:42:25;;;;;;;21.17;13.13;;;16.20;41.00;;;;;;5023512;28;20569;-62
2021/03/10 11:44:52;;;;;;;16.87;12.43;;;16.40;40.40;;;;;;5038772;28;20258;-63
2021/03/10 11:47:19;;;;;;;21.20;12.63;;;16.60;40.10;;;;;;5040894;28;20265;-62
2021/03/10 11:49:46;;;;;;;17.57;13.00;;;16.70;40.40;;;;;;5037906;28;20283;-61
2021/03/10 11:52:13;;;;;;;18.20;13.17;;;16.80;39.90;;;;;;5035362;28;20211;-63
2021/03/10 11:54:40;;;;;;;14.63;13.03;;;16.90;39.90;;;;;;5013330;28;20199;-63
2021/03/10 11:57:09;;;;;;;17.77;12.53;;;17.00;39.60;;;;;;5033538;28;20239;-62
2021/03/10 11:59:36;;;;;;;16.20;13.00;;;17.10;39.90;;;;;;5040497;28;20231;-61
2021/03/10 12:02:03;;;;;;;17.17;14.20;;;17.20;39.70;;;;;;5020994;28;20596;-62
2021/03/10 12:04:30;;;;;;;16.97;13.77;;;17.20;39.00;;;;;;5035095;28;20203;-61
2021/03/10 12:06:57;;;;;;;19.77;14.70;;;17.20;38.90;;;;;;5038148;28;20306;-64
2021/03/10 12:09:24;;;;;;;18.17;14.07;;;17.10;39.60;;;;;;5038560;28;20533;-63
2021/03/10 12:11:51;;;;;;;18.30;14.17;;;17.00;39.30;;;;;;5034440;28;20206;-62
2021/03/10 12:14:24;;;;;;;20.23;13.83;;;16.90;39.20;;;;;;5031789;28;20199;-63
2021/03/10 12:16:50;;;;;;;17.83;13.77;;;16.80;39.10;;;;;;5033015;28;20230;-65
2021/03/10 12:19:18;;;;;;;15.67;13.03;;;16.80;39.40;;;;;;5033033;28;20324;-63
2021/03/10 12:21:45;;;;;;;17.60;14.17;;;16.80;39.30;;;;;;5026514;28;20269;-61
2021/03/10 12:24:12;;;;;;;17.40;13.43;;;16.70;39.20;;;;;;5029276;28;20211;-62
2021/03/10 12:26:39;;;;;;;18.23;14.07;;;16.70;39.10;;;;;;5011460;28;20551;-62
2021/03/10 12:29:07;;;;;;;17.27;13.77;;;16.70;40.10;;;;;;5033415;28;20280;-60
2021/03/10 12:31:35;;;;;;;16.03;13.17;;;16.90;40.40;;;;;;5029705;28;20211;-62
2021/03/10 12:34:03;;;;;;;15.30;12.50;;;17.00;39.20;;;;;;5026241;28;20736;-58
2021/03/10 12:36:30;;;;;;;18.90;13.17;;;17.10;39.80;;;;;;5024178;28;20231;-61
2021/03/10 12:38:57;;;;;;;16.77;13.97;;;17.20;39.90;;;;;;5011300;28;20268;-62
2021/03/10 12:41:24;;;;;;;19.10;13.77;;;17.30;39.90;;;;;;5007672;28;20211;-62
2021/03/10 12:43:51;;;;;;;17.23;13.63;;;17.30;40.00;;;;;;5022034;28;20203;-62
2021/03/10 12:46:17;;;;;;;21.00;13.87;;;17.10;39.80;;;;;;5043370;28;20213;-62